Terminal Aerodrome Forecast
Issued by NWS

Home | Current Version | Previous Version | Text Only | Print | Product List | Glossary On
Versions: 1 2 3 4 5 6 7 8 9 10 11 12 13 14 15 16 17
139
FTUS44 KLZK 262229 AAC
TAFLIT
TAF AMD
KLIT 262229Z 2622/2718 16007KT 3SM -TSRA BR BKN010 OVC029CB
      TEMPO 2622/2624 VRB15G30KT 1SM TSRA OVC005CB
     FM270000 25012G20KT P6SM -SHRA SCT010 OVC020
      TEMPO 2700/2703 OVC010
     FM270300 27008G16KT P6SM OVC030
     FM270800 29010KT P6SM SCT025 SCT100=

USA.gov is the U.S. government's official web portal to all federal, state and local government web resources and services.